Terminal Aerodrome Forecast
Issued by NWS Charleston, WV

Current Version | Previous Version | Graphics & Text | Print | Product List | Glossary On
Versions: 1 2 3 4 5 6 7 8 9 10 11 12 13 14 15 16 17 18 19 20 21 22 23 24 25 26
000
FTUS41 KRLX 271000 AAD
TAFCRW
TAF AMD
KCRW 271027Z 2710/2806 32006KT 4SM -SN OVC012
     FM271200 32007KT 6SM -SN BKN015
     FM271800 31006KT P6SM SCT025
     FM272300 00000KT P6SM SCT250=

USA.gov is the U.S. government's official web portal to all federal, state and local government web resources and services.